Time;durP1;ratioP1;P1;durP2;ratioP2;P2;SDS_P1;SDS_P2;PMS_P1;PMS_P2;Temp;Humidity;BMP_temperature;BMP_pressure;BME280_temperature;BME280_humidity;BME280_pressure;Samples;Min_cycle;Max_cycle;Signal;HPM_P1;HPM_P2
2022/01/05 00:00:04;;;;;;;2.92;0.50;;;20.80;50.60;;;;;;5029363;28;20045;-87
2022/01/05 00:02:30;;;;;;;1.48;0.40;;;20.70;50.60;;;;;;5030616;28;20136;-87
2022/01/05 00:04:56;;;;;;;2.20;0.43;;;20.80;50.60;;;;;;5030072;28;20645;-87
2022/01/05 00:07:21;;;;;;;1.50;0.47;;;20.70;50.60;;;;;;5029365;28;20725;-87
2022/01/05 00:09:48;;;;;;;1.38;0.43;;;20.70;50.60;;;;;;5029869;28;20053;-88
2022/01/05 00:12:14;;;;;;;1.63;0.40;;;20.70;50.60;;;;;;5029083;28;20053;-88
2022/01/05 00:14:39;;;;;;;1.10;0.32;;;20.70;50.60;;;;;;5029984;28;20053;-87
2022/01/05 00:17:05;;;;;;;0.73;0.30;;;20.60;50.60;;;;;;5031997;28;20048;-87
2022/01/05 00:19:34;;;;;;;1.73;0.55;;;20.60;50.50;;;;;;5027693;28;20532;-87
2022/01/05 00:21:59;;;;;;;2.30;0.57;;;20.60;50.60;;;;;;5029867;28;20429;-87
2022/01/05 00:24:25;;;;;;;1.77;0.40;;;20.60;50.60;;;;;;5029968;28;20046;-87
2022/01/05 00:26:51;;;;;;;2.10;0.35;;;20.60;50.60;;;;;;5029161;28;20057;-87
2022/01/05 00:29:16;;;;;;;1.70;0.45;;;20.60;50.60;;;;;;5029332;28;20045;-87
2022/01/05 00:31:42;;;;;;;3.67;0.40;;;20.60;50.60;;;;;;5029459;28;20195;-87
2022/01/05 00:34:07;;;;;;;2.33;0.52;;;20.60;50.60;;;;;;5028852;28;20409;-87
2022/01/05 00:36:33;;;;;;;1.98;0.38;;;20.50;50.60;;;;;;5029044;28;20045;-86
2022/01/05 00:38:58;;;;;;;1.83;0.38;;;20.50;50.60;;;;;;5029055;28;20053;-86
2022/01/05 00:41:24;;;;;;;1.30;0.40;;;20.50;50.60;;;;;;5028776;28;20049;-87
2022/01/05 00:43:49;;;;;;;1.80;0.50;;;20.50;50.60;;;;;;5006607;28;20582;-86
2022/01/05 00:46:15;;;;;;;2.45;0.60;;;20.50;50.60;;;;;;5029314;28;20456;-86
2022/01/05 00:48:40;;;;;;;2.00;0.43;;;20.50;50.60;;;;;;5015445;28;20055;-86
2022/01/05 00:51:10;;;;;;;2.00;0.55;;;20.50;50.60;;;;;;5032352;28;20047;-87
2022/01/05 00:53:36;;;;;;;2.72;0.43;;;20.50;50.60;;;;;;5032287;28;20132;-87
2022/01/05 00:56:02;;;;;;;1.23;0.30;;;20.50;50.60;;;;;;5031661;28;20120;-86
2022/01/05 00:58:27;;;;;;;1.27;0.30;;;20.50;50.60;;;;;;5031832;28;20060;-86
2022/01/05 01:00:53;;;;;;;2.53;0.52;;;20.40;50.60;;;;;;5048925;28;20049;-86
2022/01/05 01:03:19;;;;;;;2.78;0.50;;;21.80;51.40;;;;;;5031563;28;20085;-86
2022/01/05 01:05:44;;;;;;;1.35;0.40;;;20.40;50.60;;;;;;5015467;28;20041;-86
2022/01/05 01:08:10;;;;;;;1.15;0.35;;;20.40;51.30;;;;;;5046925;28;20802;-86
2022/01/05 01:10:38;;;;;;;1.33;0.35;;;20.40;50.60;;;;;;5031537;28;20396;-86
2022/01/05 01:13:04;;;;;;;1.52;0.40;;;20.40;50.60;;;;;;5032023;28;20049;-86
2022/01/05 01:15:29;;;;;;;2.35;0.30;;;20.40;50.60;;;;;;5031535;28;20719;-86
2022/01/05 01:17:55;;;;;;;1.75;0.47;;;20.40;50.70;;;;;;5032070;28;20536;-86
2022/01/05 01:20:20;;;;;;;1.27;0.50;;;20.30;50.60;;;;;;5032107;28;20599;-86
2022/01/05 01:22:47;;;;;;;2.15;0.40;;;20.30;50.60;;;;;;5030856;28;20051;-87
2022/01/05 01:25:13;;;;;;;1.60;0.30;;;20.30;50.60;;;;;;5031768;28;20055;-86
2022/01/05 01:27:40;;;;;;;1.45;0.40;;;20.30;50.60;;;;;;5031705;28;20048;-86
2022/01/05 01:30:06;;;;;;;1.58;0.50;;;20.30;50.60;;;;;;5030957;28;20057;-86
2022/01/05 01:32:32;;;;;;;1.23;0.30;;;20.30;51.30;;;;;;5015105;28;20041;-86
2022/01/05 01:34:57;;;;;;;2.53;0.50;;;20.20;50.60;;;;;;5048372;28;20496;-86
2022/01/05 01:37:23;;;;;;;1.48;0.30;;;20.20;50.60;;;;;;5030777;28;20075;-86
2022/01/05 01:39:48;;;;;;;1.58;0.40;;;20.20;50.60;;;;;;5031378;28;20045;-86
2022/01/05 01:42:15;;;;;;;1.50;0.40;;;20.20;50.60;;;;;;5021617;28;20201;-87
2022/01/05 01:44:40;;;;;;;1.70;0.40;;;20.20;50.60;;;;;;5030637;28;20052;-86
2022/01/05 01:47:06;;;;;;;1.45;0.40;;;20.20;50.60;;;;;;5031119;28;20107;-86
2022/01/05 01:49:31;;;;;;;1.85;0.47;;;20.20;50.60;;;;;;5031601;28;20045;-87
2022/01/05 01:51:57;;;;;;;2.22;0.73;;;20.20;50.60;;;;;;5017629;28;20909;-86
2022/01/05 01:54:22;;;;;;;1.02;0.20;;;20.10;50.50;;;;;;5012289;28;20417;-86
2022/01/05 01:56:48;;;;;;;1.05;0.40;;;20.20;50.60;;;;;;5011310;28;20045;-86
2022/01/05 01:59:14;;;;;;;2.22;0.80;;;20.10;50.60;;;;;;5027776;28;20132;-86
2022/01/05 02:01:40;;;;;;;2.15;0.40;;;20.20;50.60;;;;;;5011603;28;20053;-86
2022/01/05 02:04:05;;;;;;;1.38;0.40;;;20.10;50.50;;;;;;5011433;28;20089;-86
2022/01/05 02:06:31;;;;;;;1.73;0.32;;;20.10;50.50;;;;;;5010972;28;20509;-86
2022/01/05 02:08:58;;;;;;;2.22;0.40;;;20.10;50.50;;;;;;5010517;28;20060;-86
2022/01/05 02:11:25;;;;;;;1.27;0.38;;;20.10;50.60;;;;;;5011515;28;20053;-86
2022/01/05 02:13:51;;;;;;;1.35;0.30;;;20.10;50.60;;;;;;5011013;28;20057;-86
2022/01/05 02:16:21;;;;;;;2.22;0.40;;;20.00;50.50;;;;;;5011466;28;20049;-86
2022/01/05 02:18:58;;;;;;;2.88;0.40;;;20.00;50.50;;;;;;5011067;28;20090;-86
2022/01/05 02:21:28;;;;;;;2.28;0.45;;;20.00;50.50;;;;;;5011300;28;20049;-85
2022/01/05 02:23:54;;;;;;;2.45;0.50;;;20.00;50.60;;;;;;5011709;28;20409;-86
2022/01/05 02:26:19;;;;;;;2.45;0.50;;;20.00;50.50;;;;;;5010800;28;20061;-86
2022/01/05 02:28:48;;;;;;;1.58;0.50;;;20.00;50.60;;;;;;5009503;28;20057;-85
2022/01/05 02:31:14;;;;;;;1.77;0.40;;;20.00;50.50;;;;;;5006889;28;20060;-86
2022/01/05 02:33:42;;;;;;;1.17;0.30;;;20.00;50.60;;;;;;5005830;28;20413;-86
2022/01/05 02:36:11;;;;;;;1.33;0.32;;;19.90;50.50;;;;;;5007293;28;20456;-86
2022/01/05 02:38:36;;;;;;;1.00;0.25;;;19.90;50.50;;;;;;5010115;28;20685;-86
2022/01/05 02:41:07;;;;;;;1.90;0.45;;;20.00;50.60;;;;;;5010029;28;20054;-87
2022/01/05 02:43:34;;;;;;;1.63;0.40;;;19.90;50.50;;;;;;5011054;28;20048;-86
2022/01/05 02:45:59;;;;;;;1.08;0.38;;;19.90;50.50;;;;;;5011020;28;20141;-86
2022/01/05 02:48:25;;;;;;;1.20;0.30;;;19.90;50.50;;;;;;5010850;28;20159;-87
2022/01/05 02:50:54;;;;;;;3.42;0.57;;;19.90;50.50;;;;;;5010733;28;20566;-86
2022/01/05 02:53:19;;;;;;;1.65;0.40;;;20.00;50.60;;;;;;5013068;28;20072;-86
2022/01/05 02:55:45;;;;;;;1.30;0.30;;;19.90;50.50;;;;;;5026975;28;20128;-86
2022/01/05 02:58:10;;;;;;;2.80;0.50;;;19.90;50.60;;;;;;5027341;28;20046;-86
2022/01/05 03:00:36;;;;;;;1.73;0.38;;;19.90;50.60;;;;;;5030826;28;20054;-86
2022/01/05 03:03:01;;;;;;;1.60;0.30;;;19.90;50.50;;;;;;5030427;28;20099;-85
2022/01/05 03:05:27;;;;;;;0.90;0.20;;;19.90;50.60;;;;;;5031206;28;20790;-86
2022/01/05 03:07:53;;;;;;;1.15;0.20;;;20.60;51.00;;;;;;5013053;28;20049;-85
2022/01/05 03:10:19;;;;;;;1.88;0.40;;;19.90;50.60;;;;;;5030312;28;20049;-84
2022/01/05 03:12:44;;;;;;;2.33;0.45;;;19.90;50.60;;;;;;5030710;28;20071;-84
2022/01/05 03:15:10;;;;;;;1.52;0.45;;;19.90;50.60;;;;;;5032424;28;20467;-85
2022/01/05 03:17:36;;;;;;;1.63;0.32;;;19.90;50.60;;;;;;5030810;28;20033;-85
2022/01/05 03:20:03;;;;;;;1.42;0.40;;;19.90;50.60;;;;;;5030882;28;20053;-84
2022/01/05 03:22:29;;;;;;;1.15;0.30;;;19.90;50.60;;;;;;5029768;28;20055;-85
2022/01/05 03:24:54;;;;;;;1.15;0.30;;;19.90;50.60;;;;;;5030611;28;20045;-85
2022/01/05 03:27:20;;;;;;;2.20;0.38;;;19.90;50.60;;;;;;5030774;28;20140;-84
2022/01/05 03:29:45;;;;;;;0.82;0.22;;;19.90;50.60;;;;;;5030091;28;20096;-84
2022/01/05 03:32:11;;;;;;;1.58;0.30;;;19.90;50.60;;;;;;5030895;28;20042;-84
2022/01/05 03:34:38;;;;;;;1.27;0.40;;;19.90;50.60;;;;;;5030487;28;20500;-84
2022/01/05 03:37:03;;;;;;;1.20;0.30;;;19.90;50.60;;;;;;5029581;28;20132;-85
2022/01/05 03:39:29;;;;;;;0.85;0.30;;;19.90;50.50;;;;;;5030429;28;20051;-85
2022/01/05 03:41:54;;;;;;;2.22;0.30;;;19.90;50.60;;;;;;5030170;28;20045;-85
2022/01/05 03:44:20;;;;;;;1.42;0.30;;;19.90;50.60;;;;;;5029649;28;20044;-85
2022/01/05 03:46:46;;;;;;;2.55;0.50;;;19.90;50.70;;;;;;5030412;28;20464;-84
2022/01/05 03:49:14;;;;;;;1.95;0.40;;;19.90;50.50;;;;;;5002232;28;20060;-85
2022/01/05 03:51:39;;;;;;;1.02;0.40;;;19.90;50.60;;;;;;5011876;28;20061;-85
2022/01/05 03:54:05;;;;;;;1.40;0.40;;;19.80;50.40;;;;;;5014012;28;20056;-85
2022/01/05 03:56:30;;;;;;;1.65;0.40;;;19.80;50.40;;;;;;5013830;28;20029;-85
2022/01/05 03:58:56;;;;;;;1.48;0.30;;;19.90;50.50;;;;;;5012686;28;20664;-85
2022/01/05 04:01:21;;;;;;;1.60;0.30;;;19.90;50.50;;;;;;5013476;28;20049;-86
2022/01/05 04:03:47;;;;;;;1.70;0.30;;;19.90;50.50;;;;;;5013376;28;20064;-86
2022/01/05 04:06:14;;;;;;;1.20;0.30;;;19.80;50.40;;;;;;5012659;28;20045;-86
2022/01/05 04:08:39;;;;;;;1.98;0.30;;;19.90;50.40;;;;;;5013758;28;20045;-85
2022/01/05 04:11:05;;;;;;;2.20;0.43;;;19.80;50.30;;;;;;5012434;28;20516;-86
2022/01/05 04:13:31;;;;;;;2.00;0.30;;;19.90;50.40;;;;;;5011620;28;20049;-85
2022/01/05 04:15:56;;;;;;;2.25;0.30;;;21.70;51.30;;;;;;5013239;28;20056;-85
2022/01/05 04:18:22;;;;;;;1.88;0.28;;;19.80;50.30;;;;;;5012900;28;20552;-85
2022/01/05 04:20:47;;;;;;;1.42;0.40;;;19.80;50.30;;;;;;5012832;28;20528;-84
2022/01/05 04:23:13;;;;;;;1.50;0.32;;;19.80;50.30;;;;;;5012676;28;20048;-83
2022/01/05 04:25:39;;;;;;;1.45;0.30;;;21.20;51.00;;;;;;5012341;28;20045;-83
2022/01/05 04:28:04;;;;;;;2.33;0.32;;;19.80;50.30;;;;;;5012807;28;20059;-86
2022/01/05 04:30:31;;;;;;;2.22;0.40;;;19.80;50.30;;;;;;5013590;28;20041;-86
2022/01/05 04:32:56;;;;;;;2.47;0.57;;;19.80;50.30;;;;;;5012344;28;20059;-85
2022/01/05 04:35:22;;;;;;;1.83;0.30;;;19.80;50.30;;;;;;5012787;28;20144;-84
2022/01/05 04:37:47;;;;;;;2.25;0.40;;;19.80;50.20;;;;;;5012839;28;20069;-85
2022/01/05 04:40:13;;;;;;;1.05;0.20;;;19.80;50.20;;;;;;5012186;28;20042;-84
2022/01/05 04:42:39;;;;;;;2.10;0.35;;;19.80;50.20;;;;;;5011582;28;20061;-84
2022/01/05 04:45:05;;;;;;;1.65;0.40;;;19.80;50.20;;;;;;5012652;28;20452;-84
2022/01/05 04:47:30;;;;;;;1.85;0.40;;;19.80;50.20;;;;;;5012267;28;20042;-85
2022/01/05 04:49:56;;;;;;;2.35;0.40;;;19.80;50.20;;;;;;5012313;28;20079;-84
2022/01/05 04:52:21;;;;;;;2.03;0.22;;;19.80;50.30;;;;;;5012268;28;20060;-85
2022/01/05 04:54:47;;;;;;;1.70;0.30;;;19.90;50.40;;;;;;5026875;28;20061;-85
2022/01/05 04:57:16;;;;;;;2.55;0.40;;;20.00;50.40;;;;;;5028949;28;20041;-85
2022/01/05 04:59:41;;;;;;;1.45;0.30;;;19.80;50.30;;;;;;5028555;28;20084;-85
2022/01/05 05:02:07;;;;;;;2.17;0.40;;;19.90;50.40;;;;;;5028150;28;20045;-85
2022/01/05 05:04:32;;;;;;;2.28;0.40;;;19.90;50.40;;;;;;5028851;28;20168;-85
2022/01/05 05:06:58;;;;;;;1.23;0.40;;;19.90;50.40;;;;;;5028728;28;20064;-85
2022/01/05 05:09:23;;;;;;;2.30;0.50;;;19.90;50.40;;;;;;5027844;28;20049;-85
2022/01/05 05:11:50;;;;;;;2.88;0.52;;;19.90;50.40;;;;;;5028562;28;20084;-85
2022/01/05 05:14:15;;;;;;;0.90;0.30;;;19.90;50.40;;;;;;5028449;28;20159;-85
2022/01/05 05:16:41;;;;;;;1.05;0.40;;;19.90;50.40;;;;;;5028055;28;20504;-85
2022/01/05 05:19:06;;;;;;;1.80;0.38;;;19.90;50.40;;;;;;5028765;28;20037;-85
2022/01/05 05:21:32;;;;;;;1.25;0.30;;;19.90;50.40;;;;;;5028350;28;20584;-85
2022/01/05 05:23:58;;;;;;;1.63;0.20;;;19.90;50.40;;;;;;5027088;28;20045;-85
2022/01/05 05:26:23;;;;;;;1.73;0.32;;;19.90;50.40;;;;;;5028955;28;20045;-86
2022/01/05 05:28:49;;;;;;;2.80;0.40;;;19.90;50.40;;;;;;5034818;28;20426;-85
2022/01/05 05:31:14;;;;;;;2.20;0.30;;;20.00;50.40;;;;;;5048518;28;20107;-86
2022/01/05 05:33:40;;;;;;;1.73;0.30;;;20.00;50.40;;;;;;5047996;28;20037;-85
2022/01/05 05:36:05;;;;;;;1.83;0.30;;;20.00;50.40;;;;;;5047555;28;20398;-84
2022/01/05 05:38:31;;;;;;;0.55;0.20;;;20.00;50.40;;;;;;5048164;28;20064;-86
2022/01/05 05:40:57;;;;;;;1.52;0.40;;;20.00;50.40;;;;;;5047961;28;20137;-84
2022/01/05 05:43:22;;;;;;;1.40;0.30;;;20.00;50.30;;;;;;5047561;28;20483;-85
2022/01/05 05:45:48;;;;;;;1.40;0.30;;;20.10;50.30;;;;;;5047698;28;20084;-85
2022/01/05 05:48:13;;;;;;;1.95;0.43;;;20.10;50.30;;;;;;5047837;28;20374;-85
2022/01/05 05:50:39;;;;;;;2.33;0.30;;;20.10;50.30;;;;;;5043510;28;20084;-85
2022/01/05 05:53:05;;;;;;;1.98;0.60;;;21.80;51.10;;;;;;5011510;28;20044;-85
2022/01/05 05:55:30;;;;;;;1.20;0.40;;;20.10;50.30;;;;;;5011847;28;20041;-85
2022/01/05 05:57:56;;;;;;;1.63;0.32;;;20.10;50.30;;;;;;5010794;28;20548;-85
2022/01/05 06:00:21;;;;;;;0.73;0.20;;;21.40;50.90;;;;;;5011765;28;20045;-86
2022/01/05 06:02:47;;;;;;;1.90;0.40;;;20.20;50.30;;;;;;5011281;28;20084;-86
2022/01/05 06:05:13;;;;;;;1.95;0.40;;;20.20;50.20;;;;;;4993387;28;20699;-86
2022/01/05 06:07:38;;;;;;;1.35;0.22;;;20.20;50.30;;;;;;5027558;28;20037;-85
2022/01/05 06:10:04;;;;;;;1.08;0.40;;;20.20;50.20;;;;;;5027935;28;20144;-86
2022/01/05 06:12:30;;;;;;;1.50;0.30;;;20.20;50.20;;;;;;5026982;28;20040;-85
2022/01/05 06:14:55;;;;;;;2.08;0.30;;;20.20;50.20;;;;;;5027754;28;20049;-85
2022/01/05 06:17:21;;;;;;;2.05;0.30;;;20.20;50.20;;;;;;5026588;28;20128;-87
2022/01/05 06:19:46;;;;;;;2.20;0.20;;;20.30;50.20;;;;;;5027075;28;20049;-87
2022/01/05 06:22:12;;;;;;;1.80;0.40;;;20.30;50.20;;;;;;5030278;28;20164;-87
2022/01/05 06:24:39;;;;;;;1.15;0.40;;;20.30;50.10;;;;;;5027750;28;20057;-87
2022/01/05 06:27:06;;;;;;;1.27;0.30;;;20.30;50.80;;;;;;5027140;28;20187;-88
2022/01/05 06:29:31;;;;;;;2.20;0.30;;;20.30;50.10;;;;;;5026840;28;20076;-88
2022/01/05 06:31:57;;;;;;;1.80;0.45;;;20.60;50.20;;;;;;5017457;28;20067;-88
2022/01/05 06:34:22;;;;;;;1.63;0.32;;;20.30;50.10;;;;;;5028021;28;20053;-87
2022/01/05 06:36:48;;;;;;;1.63;0.35;;;20.30;50.00;;;;;;5031540;28;20144;-85
2022/01/05 06:39:13;;;;;;;1.30;0.50;;;20.30;50.00;;;;;;5030344;28;20056;-87
2022/01/05 06:41:39;;;;;;;2.00;0.35;;;20.30;49.90;;;;;;5031097;28;20523;-85
2022/01/05 06:44:05;;;;;;;1.73;0.40;;;20.40;50.00;;;;;;5031078;28;20187;-86
2022/01/05 06:46:30;;;;;;;1.95;0.40;;;20.40;50.00;;;;;;5030712;28;20049;-86
2022/01/05 06:48:56;;;;;;;2.08;0.40;;;20.40;49.90;;;;;;5031162;28;20485;-85
2022/01/05 06:51:21;;;;;;;1.63;0.40;;;20.40;50.60;;;;;;5030291;28;20443;-86
2022/01/05 06:53:47;;;;;;;1.67;0.47;;;20.50;50.00;;;;;;5030094;28;20045;-87
2022/01/05 06:56:12;;;;;;;1.05;0.32;;;20.40;49.90;;;;;;5030665;28;20048;-85
2022/01/05 06:58:38;;;;;;;1.38;0.38;;;21.80;50.60;;;;;;5031569;28;20057;-86
2022/01/05 07:01:03;;;;;;;1.23;0.30;;;20.40;49.80;;;;;;5029855;28;20077;-86
2022/01/05 07:03:29;;;;;;;1.13;0.25;;;20.40;49.80;;;;;;5031306;28;20390;-85
2022/01/05 07:05:55;;;;;;;1.52;0.40;;;20.40;49.80;;;;;;5031235;28;20053;-86
2022/01/05 07:08:20;;;;;;;2.15;0.40;;;20.40;49.80;;;;;;5030601;28;20056;-87
2022/01/05 07:10:46;;;;;;;3.05;0.55;;;20.40;49.70;;;;;;5033701;28;20505;-87
2022/01/05 07:13:11;;;;;;;2.53;0.50;;;20.60;49.80;;;;;;5032158;28;20378;-87
2022/01/05 07:15:37;;;;;;;1.88;0.40;;;20.40;49.70;;;;;;5030402;28;20045;-86
2022/01/05 07:18:02;;;;;;;2.72;0.45;;;20.40;49.60;;;;;;5060161;23;20049;-88
2022/01/05 07:20:28;;;;;;;3.50;0.55;;;20.40;49.60;;;;;;5051354;28;20570;-88
2022/01/05 07:22:54;;;;;;;2.63;0.40;;;20.40;49.60;;;;;;5050102;28;20045;-87
2022/01/05 07:25:19;;;;;;;1.95;0.30;;;20.40;49.60;;;;;;5048824;28;20056;-87
2022/01/05 07:27:45;;;;;;;1.13;0.32;;;20.50;49.60;;;;;;5049590;28;20040;-88
2022/01/05 07:30:11;;;;;;;1.30;0.40;;;20.40;49.50;;;;;;5049700;28;20045;-87
2022/01/05 07:32:36;;;;;;;0.85;0.25;;;20.40;49.50;;;;;;5050424;28;20060;-88
2022/01/05 07:35:02;;;;;;;0.93;0.30;;;20.80;49.70;;;;;;5067608;28;20127;-88
2022/01/05 07:37:28;;;;;;;0.90;0.30;;;20.40;49.50;;;;;;5049770;28;20044;-88
2022/01/05 07:39:53;;;;;;;1.60;0.35;;;20.40;49.40;;;;;;5050578;28;20167;-88
2022/01/05 07:42:19;;;;;;;0.98;0.30;;;20.40;49.40;;;;;;5049814;28;20432;-86
2022/01/05 07:44:44;;;;;;;2.17;0.50;;;20.40;49.40;;;;;;5050138;28;20041;-86
2022/01/05 07:47:11;;;;;;;1.67;0.30;;;20.40;49.40;;;;;;5050622;28;20596;-85
2022/01/05 07:49:37;;;;;;;2.08;0.50;;;20.40;49.40;;;;;;5049344;28;20086;-85
2022/01/05 07:52:04;;;;;;;2.75;0.57;;;20.40;49.40;;;;;;5067876;28;20056;-85
2022/01/05 07:54:30;;;;;;;1.80;0.50;;;20.40;49.30;;;;;;5048801;28;20051;-85
2022/01/05 07:56:55;;;;;;;1.85;0.30;;;20.40;49.30;;;;;;5071723;23;20045;-85
2022/01/05 07:59:21;;;;;;;1.40;0.40;;;20.40;49.40;;;;;;5069994;28;20139;-85
2022/01/05 08:01:46;;;;;;;2.72;0.40;;;20.40;49.30;;;;;;5069330;28;20037;-86
2022/01/05 08:04:13;;;;;;;2.55;0.40;;;20.40;49.30;;;;;;5068914;28;20048;-85
2022/01/05 08:06:39;;;;;;;1.30;0.40;;;20.40;49.40;;;;;;5068068;28;20052;-85
2022/01/05 08:09:04;;;;;;;1.98;0.38;;;20.40;49.30;;;;;;5069669;28;20575;-86
2022/01/05 08:11:30;;;;;;;4.28;0.70;;;21.20;49.80;;;;;;5068886;28;20028;-88
2022/01/05 08:13:55;;;;;;;4.50;0.63;;;20.30;48.80;;;;;;5071163;28;20043;-88
2022/01/05 08:16:21;;;;;;;5.93;0.70;;;20.30;48.40;;;;;;5070336;28;20127;-87
2022/01/05 08:18:46;;;;;;;2.95;0.40;;;20.30;48.30;;;;;;5069680;28;20047;-87
2022/01/05 08:21:12;;;;;;;4.40;0.75;;;20.20;48.40;;;;;;5070409;28;20055;-88
2022/01/05 08:23:38;;;;;;;3.28;0.60;;;20.20;48.40;;;;;;5069906;28;20484;-87
2022/01/05 08:26:04;;;;;;;5.22;0.95;;;20.20;48.40;;;;;;5069090;28;20101;-86
2022/01/05 08:28:30;;;;;;;7.10;0.60;;;21.80;49.30;;;;;;5067376;28;20750;-86
2022/01/05 08:30:55;;;;;;;3.42;0.70;;;20.10;48.40;;;;;;5063070;28;20052;-90
2022/01/05 08:33:24;;;;;;;3.67;0.85;;;21.40;49.30;;;;;;5064200;28;20044;-91
2022/01/05 08:35:50;;;;;;;3.45;0.63;;;21.50;49.40;;;;;;5065280;28;20102;-90
2022/01/05 08:38:24;;;;;;;3.75;0.70;;;18.50;47.90;;;;;;5057772;28;20047;-89
2022/01/05 08:40:50;;;;;;;3.97;0.80;;;19.20;48.20;;;;;;5069105;28;20056;-89
2022/01/05 08:43:16;;;;;;;4.43;0.90;;;20.10;49.00;;;;;;5069310;28;20747;-89
2022/01/05 08:45:47;;;;;;;3.25;0.90;;;20.30;48.90;;;;;;5068300;28;20052;-91
2022/01/05 08:48:21;;;;;;;2.28;0.50;;;21.60;49.70;;;;;;5067690;28;20102;-92
2022/01/05 08:50:57;;;;;;;2.22;0.70;;;19.70;48.50;;;;;;5057799;28;20099;-91
2022/01/05 08:53:24;;;;;;;3.50;0.60;;;18.60;47.90;;;;;;5046618;28;20130;-91
2022/01/05 08:56:05;;;;;;;4.25;0.60;;;18.10;47.80;;;;;;5056695;28;20143;-89
2022/01/05 08:58:46;;;;;;;4.03;0.70;;;20.20;49.10;;;;;;5052423;28;20531;-89
2022/01/05 09:01:24;;;;;;;3.78;0.60;;;18.60;48.70;;;;;;5068957;28;20109;-89
2022/01/05 09:03:52;;;;;;;3.85;0.77;;;20.10;48.60;;;;;;5051129;28;20506;-89
2022/01/05 09:06:30;;;;;;;2.95;0.50;;;20.70;48.90;;;;;;5052321;28;20467;-89
2022/01/05 09:08:55;;;;;;;2.95;0.55;;;19.90;48.90;;;;;;5051267;28;20054;-89
2022/01/05 09:11:37;;;;;;;2.75;0.50;;;21.00;49.30;;;;;;5051679;28;20403;-88
2022/01/05 09:14:02;;;;;;;1.63;0.52;;;21.00;50.20;;;;;;5051056;28;20781;-89
2022/01/05 09:16:34;;;;;;;3.00;0.50;;;21.50;49.60;;;;;;5051573;28;20056;-89
2022/01/05 09:19:18;;;;;;;2.85;0.60;;;19.40;48.70;;;;;;5051540;28;20052;-89
2022/01/05 09:21:50;;;;;;;2.42;0.38;;;21.10;49.50;;;;;;5067909;28;20087;-88
2022/01/05 09:24:19;;;;;;;2.67;0.50;;;20.40;49.20;;;;;;5067979;28;20127;-89
2022/01/05 09:26:56;;;;;;;1.95;0.40;;;19.50;48.80;;;;;;5051383;28;20511;-88
2022/01/05 09:29:26;;;;;;;2.15;0.50;;;19.50;48.50;;;;;;5054098;28;20036;-88
2022/01/05 09:31:52;;;;;;;2.92;0.70;;;19.90;48.70;;;;;;5021833;28;20057;-88
2022/01/05 09:34:17;;;;;;;2.20;0.40;;;20.00;48.90;;;;;;5039077;28;20459;-92
2022/01/05 09:36:48;;;;;;;2.08;0.45;;;20.00;48.90;;;;;;5037454;28;20059;-95
2022/01/05 09:42:00;;;;;;;2.08;0.50;;;20.10;49.00;;;;;;5030763;28;20049;-86
2022/01/05 09:44:39;;;;;;;1.98;0.43;;;20.10;48.60;;;;;;5031426;28;20048;-88
2022/01/05 09:47:13;;;;;;;2.95;0.47;;;20.10;48.70;;;;;;5030865;28;20120;-86
2022/01/05 09:49:47;;;;;;;2.28;0.50;;;20.10;48.70;;;;;;5032327;28;20041;-89
2022/01/05 09:52:13;;;;;;;2.63;0.40;;;20.10;48.60;;;;;;4995162;28;20122;-86
2022/01/05 09:54:47;;;;;;;3.30;0.80;;;20.10;48.70;;;;;;4991757;28;20492;-88
2022/01/05 09:57:14;;;;;;;2.15;0.32;;;20.10;48.90;;;;;;5016733;28;20044;-83
2022/01/05 09:59:40;;;;;;;1.88;0.47;;;20.10;48.90;;;;;;5033517;28;20067;-84
2022/01/05 10:02:05;;;;;;;3.20;0.45;;;20.20;48.90;;;;;;5009804;28;20469;-84
2022/01/05 10:04:32;;;;;;;2.70;0.50;;;20.20;48.90;;;;;;5035765;28;20079;-87
2022/01/05 10:06:57;;;;;;;2.25;0.40;;;20.20;48.90;;;;;;5044141;28;20041;-86
2022/01/05 10:09:23;;;;;;;4.03;0.65;;;20.20;48.90;;;;;;5039607;28;20131;-86
2022/01/05 10:11:48;;;;;;;4.55;0.60;;;20.20;49.00;;;;;;5036922;28;20049;-85
2022/01/05 10:14:15;;;;;;;3.92;0.40;;;20.20;49.00;;;;;;5019218;28;20124;-84
2022/01/05 10:16:41;;;;;;;2.95;0.50;;;20.20;49.00;;;;;;5036903;28;20041;-90
2022/01/05 10:19:08;;;;;;;3.08;0.40;;;20.20;49.00;;;;;;5020592;28;20051;-85
2022/01/05 10:21:38;;;;;;;3.40;0.80;;;20.30;49.00;;;;;;5033188;28;20057;-84
2022/01/05 10:24:04;;;;;;;2.33;0.50;;;20.30;49.10;;;;;;5033926;28;20761;-83
2022/01/05 10:26:31;;;;;;;4.13;0.60;;;20.30;49.10;;;;;;5037258;28;20136;-85
2022/01/05 10:28:57;;;;;;;2.17;0.40;;;20.30;49.10;;;;;;5037635;28;20412;-87
2022/01/05 10:31:34;;;;;;;5.95;0.85;;;20.30;49.10;;;;;;5036789;28;20045;-87
2022/01/05 10:34:12;;;;;;;2.15;0.40;;;20.30;49.10;;;;;;5035922;28;20106;-84
2022/01/05 10:37:04;;;;;;;3.35;0.50;;;20.20;49.00;;;;;;5046567;28;20480;-86
2022/01/05 10:39:35;;;;;;;2.28;0.32;;;20.20;49.10;;;;;;5033437;28;20088;-81
2022/01/05 10:42:08;;;;;;;2.35;0.43;;;20.20;49.10;;;;;;5074011;28;20047;-89
2022/01/05 10:44:34;;;;;;;3.13;0.50;;;20.20;49.20;;;;;;5057134;28;20090;-84
2022/01/05 10:47:00;;;;;;;1.58;0.40;;;20.20;49.30;;;;;;5055946;28;20575;-86
2022/01/05 10:49:36;;;;;;;4.88;0.50;;;20.20;49.20;;;;;;5057569;28;20072;-86
2022/01/05 10:52:21;;;;;;;3.33;0.50;;;20.20;49.30;;;;;;5057101;28;20174;-85
2022/01/05 10:54:47;;;;;;;4.13;0.47;;;20.20;49.30;;;;;;5057015;28;20073;-85
2022/01/05 10:57:13;;;;;;;5.05;0.50;;;20.20;49.30;;;;;;5054488;28;20117;-85
2022/01/05 10:59:44;;;;;;;3.08;0.65;;;20.20;49.40;;;;;;5056601;28;20497;-86
2022/01/05 11:02:30;;;;;;;3.55;0.45;;;21.30;50.00;;;;;;5075108;28;20044;-86
2022/01/05 11:05:16;;;;;;;7.07;0.47;;;20.20;49.50;;;;;;5073684;28;20064;-85
2022/01/05 11:07:46;;;;;;;4.13;0.60;;;20.20;49.50;;;;;;5056901;28;20059;-84
2022/01/05 11:10:13;;;;;;;4.45;0.40;;;20.20;49.50;;;;;;5060901;28;20060;-83
2022/01/05 11:12:46;;;;;;;4.85;0.52;;;20.20;49.60;;;;;;5060891;28;20044;-83
2022/01/05 11:15:23;;;;;;;3.72;0.57;;;20.20;49.50;;;;;;5053885;28;20036;-87
2022/01/05 11:18:20;;;;;;;4.00;0.80;;;20.20;49.50;;;;;;5054240;28;20072;-88
2022/01/05 11:20:51;;;;;;;3.13;0.50;;;20.20;49.50;;;;;;5051434;28;20201;-86
2022/01/05 11:23:19;;;;;;;3.35;0.40;;;20.20;49.50;;;;;;5053045;28;20052;-86
2022/01/05 11:25:44;;;;;;;2.90;0.60;;;20.30;49.60;;;;;;5069640;28;20129;-87
2022/01/05 11:28:10;;;;;;;4.50;0.70;;;20.30;49.60;;;;;;5053247;28;20120;-86
2022/01/05 11:30:36;;;;;;;2.15;0.50;;;20.30;49.50;;;;;;5053671;28;20045;-87
2022/01/05 11:33:02;;;;;;;1.60;0.40;;;20.30;49.50;;;;;;5053715;28;20033;-87
2022/01/05 11:35:28;;;;;;;2.60;0.45;;;20.30;49.50;;;;;;5053727;28;20071;-87
2022/01/05 11:37:54;;;;;;;2.78;0.60;;;20.30;49.40;;;;;;5037287;28;20484;-87
2022/01/05 11:40:20;;;;;;;2.15;0.30;;;20.40;49.50;;;;;;5063821;28;20052;-87
2022/01/05 11:42:48;;;;;;;2.20;0.40;;;20.60;49.50;;;;;;5035947;28;20119;-87
2022/01/05 11:45:47;;;;;;;2.05;0.28;;;20.40;49.40;;;;;;5020603;28;20178;-87
2022/01/05 11:48:30;;;;;;;1.77;0.30;;;20.40;49.40;;;;;;5008255;28;20145;-89
2022/01/05 11:51:00;;;;;;;3.45;0.50;;;20.40;49.40;;;;;;5054392;28;20061;-91
2022/01/05 11:53:43;;;;;;;4.35;0.60;;;20.40;49.30;;;;;;5053049;28;20575;-88
2022/01/05 11:56:10;;;;;;;2.28;0.57;;;20.50;49.30;;;;;;5051976;28;20067;-88
2022/01/05 11:58:37;;;;;;;3.15;0.52;;;20.50;49.30;;;;;;5052590;28;20048;-89
2022/01/05 12:01:18;;;;;;;2.58;0.40;;;20.50;49.20;;;;;;5028353;28;20102;-88
2022/01/05 12:04:04;;;;;;;2.65;0.52;;;20.50;49.20;;;;;;5032675;28;20492;-88
2022/01/05 12:06:45;;;;;;;2.28;0.50;;;20.50;49.10;;;;;;5033239;28;20129;-88
2022/01/05 12:09:21;;;;;;;3.45;0.50;;;20.50;49.10;;;;;;5033290;28;20052;-88
2022/01/05 12:12:29;;;;;;;3.25;0.40;;;20.50;49.10;;;;;;5031180;28;20716;-89
2022/01/05 12:14:55;;;;;;;4.10;0.50;;;20.50;49.00;;;;;;5033468;28;20052;-88
2022/01/05 12:17:23;;;;;;;1.77;0.30;;;20.50;49.30;;;;;;5031433;28;20037;-88
2022/01/05 12:20:04;;;;;;;2.28;0.40;;;20.40;49.60;;;;;;5026769;28;20086;-87
2022/01/05 12:22:39;;;;;;;2.35;0.45;;;20.50;49.20;;;;;;5024649;28;20045;-89
2022/01/05 12:28:30;;;;;;;2.40;0.45;;;20.60;49.80;;;;;;5015353;28;20053;-90
2022/01/05 12:30:55;;;;;;;4.05;0.70;;;20.50;49.00;;;;;;5017236;28;20049;-85
2022/01/05 12:33:43;;;;;;;1.75;0.47;;;18.60;48.10;;;;;;5050831;28;20442;-92
2022/01/05 12:36:54;;;;;;;3.88;0.55;;;20.50;49.00;;;;;;5032139;28;20250;-86
2022/01/05 12:39:48;;;;;;;22.80;6.97;;;20.60;49.00;;;;;;4995830;28;20050;-85
2022/01/05 12:46:34;;;;;;;203.30;70.28;;;20.10;48.60;;;;;;4910984;29;20108;-85
2022/01/05 12:52:17;;;;;;;316.25;110.80;;;19.00;48.30;;;;;;4980454;28;20090;-93
2022/01/05 12:57:43;;;;;;;313.52;110.90;;;20.50;49.00;;;;;;1533612;23;20337;-89
2022/01/05 13:00:39;;;;;;;323.13;112.20;;;20.50;49.10;;;;;;4973249;28;20081;-94
2022/01/05 13:03:40;;;;;;;330.60;116.53;;;19.50;48.50;;;;;;4975549;28;20054;-93
2022/01/05 13:06:51;;;;;;;352.20;124.72;;;20.10;48.80;;;;;;5007357;28;20125;-92